sensor_id;sensor_type;location;lat;lon;timestamp;P1;durP1;ratioP1;P2;durP2;ratioP2
69310;SDS011;56430;48.154;16.458;2023-03-20T00:01:30;26.60;;;11.43;;
69310;SDS011;56430;48.154;16.458;2023-03-20T00:03:57;25.92;;;11.23;;
69310;SDS011;56430;48.154;16.458;2023-03-20T00:06:25;28.20;;;11.15;;
69310;SDS011;56430;48.154;16.458;2023-03-20T00:08:53;27.60;;;10.40;;
69310;SDS011;56430;48.154;16.458;2023-03-20T00:11:25;26.90;;;11.02;;
69310;SDS011;56430;48.154;16.458;2023-03-20T00:13:55;22.97;;;10.47;;
69310;SDS011;56430;48.154;16.458;2023-03-20T00:16:23;25.60;;;9.98;;
69310;SDS011;56430;48.154;16.458;2023-03-20T00:18:50;22.42;;;10.45;;
69310;SDS011;56430;48.154;16.458;2023-03-20T00:21:18;22.63;;;10.32;;
69310;SDS011;56430;48.154;16.458;2023-03-20T00:23:45;24.88;;;10.75;;
69310;SDS011;56430;48.154;16.458;2023-03-20T00:26:12;22.93;;;10.00;;
69310;SDS011;56430;48.154;16.458;2023-03-20T00:28:40;21.67;;;9.95;;
69310;SDS011;56430;48.154;16.458;2023-03-20T00:31:14;23.80;;;9.82;;
69310;SDS011;56430;48.154;16.458;2023-03-20T00:33:43;25.77;;;10.35;;
69310;SDS011;56430;48.154;16.458;2023-03-20T00:36:11;20.80;;;9.75;;
69310;SDS011;56430;48.154;16.458;2023-03-20T00:38:38;24.73;;;10.00;;
69310;SDS011;56430;48.154;16.458;2023-03-20T00:41:10;26.25;;;10.90;;
69310;SDS011;56430;48.154;16.458;2023-03-20T00:43:44;25.42;;;10.15;;
69310;SDS011;56430;48.154;16.458;2023-03-20T00:46:14;25.73;;;10.32;;
69310;SDS011;56430;48.154;16.458;2023-03-20T00:48:40;24.83;;;10.85;;
69310;SDS011;56430;48.154;16.458;2023-03-20T00:51:08;28.30;;;10.40;;
69310;SDS011;56430;48.154;16.458;2023-03-20T00:53:35;25.95;;;10.38;;
69310;SDS011;56430;48.154;16.458;2023-03-20T00:56:02;22.10;;;10.55;;
69310;SDS011;56430;48.154;16.458;2023-03-20T00:58:29;20.55;;;10.15;;
69310;SDS011;56430;48.154;16.458;2023-03-20T01:00:56;24.90;;;11.07;;
69310;SDS011;56430;48.154;16.458;2023-03-20T01:03:25;24.17;;;11.50;;
69310;SDS011;56430;48.154;16.458;2023-03-20T01:05:54;23.38;;;10.27;;
69310;SDS011;56430;48.154;16.458;2023-03-20T01:08:22;23.27;;;10.55;;
69310;SDS011;56430;48.154;16.458;2023-03-20T01:10:50;22.73;;;9.90;;
69310;SDS011;56430;48.154;16.458;2023-03-20T01:13:19;27.42;;;10.40;;
69310;SDS011;56430;48.154;16.458;2023-03-20T01:15:46;21.40;;;10.70;;
69310;SDS011;56430;48.154;16.458;2023-03-20T01:18:14;24.88;;;10.73;;
69310;SDS011;56430;48.154;16.458;2023-03-20T01:20:43;21.00;;;10.18;;
69310;SDS011;56430;48.154;16.458;2023-03-20T01:23:10;24.48;;;10.60;;
69310;SDS011;56430;48.154;16.458;2023-03-20T01:25:37;23.08;;;9.57;;
69310;SDS011;56430;48.154;16.458;2023-03-20T01:28:10;18.33;;;10.13;;
69310;SDS011;56430;48.154;16.458;2023-03-20T01:30:39;22.80;;;9.75;;
69310;SDS011;56430;48.154;16.458;2023-03-20T01:33:09;25.73;;;10.50;;
69310;SDS011;56430;48.154;16.458;2023-03-20T01:35:37;23.77;;;10.80;;
69310;SDS011;56430;48.154;16.458;2023-03-20T01:38:09;23.42;;;9.82;;
69310;SDS011;56430;48.154;16.458;2023-03-20T01:40:39;20.83;;;9.90;;
69310;SDS011;56430;48.154;16.458;2023-03-20T01:43:11;24.48;;;9.85;;
69310;SDS011;56430;48.154;16.458;2023-03-20T01:45:38;19.30;;;9.90;;
69310;SDS011;56430;48.154;16.458;2023-03-20T01:48:11;31.50;;;10.60;;
69310;SDS011;56430;48.154;16.458;2023-03-20T01:50:39;24.20;;;11.23;;
69310;SDS011;56430;48.154;16.458;2023-03-20T01:53:07;25.33;;;10.33;;
69310;SDS011;56430;48.154;16.458;2023-03-20T01:55:37;25.35;;;10.90;;
69310;SDS011;56430;48.154;16.458;2023-03-20T01:58:05;27.20;;;11.07;;
69310;SDS011;56430;48.154;16.458;2023-03-20T02:00:33;27.60;;;10.77;;
69310;SDS011;56430;48.154;16.458;2023-03-20T02:03:01;21.92;;;9.95;;
69310;SDS011;56430;48.154;16.458;2023-03-20T02:05:28;24.40;;;10.47;;
69310;SDS011;56430;48.154;16.458;2023-03-20T02:08:02;23.33;;;9.88;;
69310;SDS011;56430;48.154;16.458;2023-03-20T02:10:31;22.25;;;10.10;;
69310;SDS011;56430;48.154;16.458;2023-03-20T02:12:59;24.50;;;10.65;;
69310;SDS011;56430;48.154;16.458;2023-03-20T02:15:28;22.42;;;9.95;;
69310;SDS011;56430;48.154;16.458;2023-03-20T02:17:55;24.13;;;10.83;;
69310;SDS011;56430;48.154;16.458;2023-03-20T02:20:26;26.77;;;10.63;;
69310;SDS011;56430;48.154;16.458;2023-03-20T02:31:28;20.27;;;9.47;;
69310;SDS011;56430;48.154;16.458;2023-03-20T02:34:03;22.25;;;9.60;;
69310;SDS011;56430;48.154;16.458;2023-03-20T02:36:47;22.00;;;9.73;;
69310;SDS011;56430;48.154;16.458;2023-03-20T02:39:23;23.35;;;10.23;;
69310;SDS011;56430;48.154;16.458;2023-03-20T02:41:55;23.02;;;9.98;;
69310;SDS011;56430;48.154;16.458;2023-03-20T02:44:28;20.87;;;9.97;;
69310;SDS011;56430;48.154;16.458;2023-03-20T02:46:59;29.85;;;10.40;;
69310;SDS011;56430;48.154;16.458;2023-03-20T02:49:32;24.83;;;10.52;;
69310;SDS011;56430;48.154;16.458;2023-03-20T02:52:01;23.23;;;10.75;;
69310;SDS011;56430;48.154;16.458;2023-03-20T02:54:32;22.90;;;9.88;;
69310;SDS011;56430;48.154;16.458;2023-03-20T02:57:01;23.53;;;9.50;;
69310;SDS011;56430;48.154;16.458;2023-03-20T02:59:31;25.67;;;10.68;;
69310;SDS011;56430;48.154;16.458;2023-03-20T03:02:01;23.50;;;11.05;;
69310;SDS011;56430;48.154;16.458;2023-03-20T03:04:31;23.63;;;10.65;;
69310;SDS011;56430;48.154;16.458;2023-03-20T03:06:59;25.52;;;10.10;;
69310;SDS011;56430;48.154;16.458;2023-03-20T03:09:29;19.93;;;10.10;;
69310;SDS011;56430;48.154;16.458;2023-03-20T03:12:11;23.20;;;10.60;;
69310;SDS011;56430;48.154;16.458;2023-03-20T03:14:42;21.77;;;9.93;;
69310;SDS011;56430;48.154;16.458;2023-03-20T03:17:10;21.35;;;10.25;;
69310;SDS011;56430;48.154;16.458;2023-03-20T03:19:39;24.77;;;10.48;;
69310;SDS011;56430;48.154;16.458;2023-03-20T03:22:07;21.50;;;10.33;;
69310;SDS011;56430;48.154;16.458;2023-03-20T03:24:35;24.02;;;10.57;;
69310;SDS011;56430;48.154;16.458;2023-03-20T03:27:03;25.17;;;10.20;;
69310;SDS011;56430;48.154;16.458;2023-03-20T03:29:35;22.13;;;9.80;;
69310;SDS011;56430;48.154;16.458;2023-03-20T03:32:02;20.17;;;9.82;;
69310;SDS011;56430;48.154;16.458;2023-03-20T03:34:31;22.10;;;10.37;;
69310;SDS011;56430;48.154;16.458;2023-03-20T03:37:00;25.70;;;9.98;;
69310;SDS011;56430;48.154;16.458;2023-03-20T03:39:30;22.20;;;9.93;;
69310;SDS011;56430;48.154;16.458;2023-03-20T03:42:00;20.23;;;9.45;;
69310;SDS011;56430;48.154;16.458;2023-03-20T03:44:30;22.83;;;9.95;;
69310;SDS011;56430;48.154;16.458;2023-03-20T03:47:02;21.50;;;9.60;;
69310;SDS011;56430;48.154;16.458;2023-03-20T03:49:32;23.67;;;10.63;;
69310;SDS011;56430;48.154;16.458;2023-03-20T03:52:00;24.23;;;9.90;;
69310;SDS011;56430;48.154;16.458;2023-03-20T03:54:29;21.92;;;9.70;;
69310;SDS011;56430;48.154;16.458;2023-03-20T03:56:58;17.00;;;9.02;;
69310;SDS011;56430;48.154;16.458;2023-03-20T03:59:29;19.03;;;9.00;;
69310;SDS011;56430;48.154;16.458;2023-03-20T04:01:56;23.23;;;10.48;;
69310;SDS011;56430;48.154;16.458;2023-03-20T04:04:25;18.95;;;9.55;;
69310;SDS011;56430;48.154;16.458;2023-03-20T04:06:53;21.70;;;10.48;;
69310;SDS011;56430;48.154;16.458;2023-03-20T04:09:20;19.33;;;8.82;;
69310;SDS011;56430;48.154;16.458;2023-03-20T04:11:48;19.40;;;9.23;;
69310;SDS011;56430;48.154;16.458;2023-03-20T04:14:15;23.70;;;10.70;;
69310;SDS011;56430;48.154;16.458;2023-03-20T04:16:43;20.27;;;9.02;;
69310;SDS011;56430;48.154;16.458;2023-03-20T04:19:09;26.13;;;9.95;;
69310;SDS011;56430;48.154;16.458;2023-03-20T04:21:38;24.85;;;10.68;;
69310;SDS011;56430;48.154;16.458;2023-03-20T04:24:05;17.27;;;9.50;;
69310;SDS011;56430;48.154;16.458;2023-03-20T04:26:32;25.42;;;10.43;;
69310;SDS011;56430;48.154;16.458;2023-03-20T04:28:59;19.85;;;8.82;;
69310;SDS011;56430;48.154;16.458;2023-03-20T04:31:26;18.45;;;9.50;;
69310;SDS011;56430;48.154;16.458;2023-03-20T04:33:56;22.70;;;9.68;;
69310;SDS011;56430;48.154;16.458;2023-03-20T04:36:23;26.37;;;10.17;;
69310;SDS011;56430;48.154;16.458;2023-03-20T04:38:51;22.00;;;9.90;;
69310;SDS011;56430;48.154;16.458;2023-03-20T04:41:18;22.08;;;9.07;;
69310;SDS011;56430;48.154;16.458;2023-03-20T04:43:45;23.90;;;10.00;;
69310;SDS011;56430;48.154;16.458;2023-03-20T04:46:12;25.90;;;9.85;;
69310;SDS011;56430;48.154;16.458;2023-03-20T04:48:39;23.03;;;10.00;;
69310;SDS011;56430;48.154;16.458;2023-03-20T04:51:06;22.17;;;9.30;;
69310;SDS011;56430;48.154;16.458;2023-03-20T04:53:33;20.10;;;9.07;;
69310;SDS011;56430;48.154;16.458;2023-03-20T04:56:06;26.25;;;10.25;;
69310;SDS011;56430;48.154;16.458;2023-03-20T04:58:33;19.92;;;9.77;;
69310;SDS011;56430;48.154;16.458;2023-03-20T05:01:00;24.37;;;9.70;;
69310;SDS011;56430;48.154;16.458;2023-03-20T05:03:30;25.25;;;9.82;;
69310;SDS011;56430;48.154;16.458;2023-03-20T05:05:58;21.23;;;9.90;;
69310;SDS011;56430;48.154;16.458;2023-03-20T05:08:25;22.05;;;9.35;;
69310;SDS011;56430;48.154;16.458;2023-03-20T05:10:52;22.42;;;10.23;;
69310;SDS011;56430;48.154;16.458;2023-03-20T05:13:21;22.77;;;10.27;;
69310;SDS011;56430;48.154;16.458;2023-03-20T05:15:48;23.33;;;10.45;;
69310;SDS011;56430;48.154;16.458;2023-03-20T05:18:15;31.08;;;10.48;;
69310;SDS011;56430;48.154;16.458;2023-03-20T05:20:41;26.55;;;12.57;;
69310;SDS011;56430;48.154;16.458;2023-03-20T05:23:08;25.80;;;11.32;;
69310;SDS011;56430;48.154;16.458;2023-03-20T05:25:35;22.23;;;10.80;;
69310;SDS011;56430;48.154;16.458;2023-03-20T05:28:02;23.52;;;11.20;;
69310;SDS011;56430;48.154;16.458;2023-03-20T05:30:31;28.33;;;12.85;;
69310;SDS011;56430;48.154;16.458;2023-03-20T05:32:58;26.30;;;11.63;;
69310;SDS011;56430;48.154;16.458;2023-03-20T05:35:25;28.92;;;11.57;;
69310;SDS011;56430;48.154;16.458;2023-03-20T05:37:51;25.20;;;12.13;;
69310;SDS011;56430;48.154;16.458;2023-03-20T05:40:18;26.27;;;11.75;;
69310;SDS011;56430;48.154;16.458;2023-03-20T05:42:48;29.67;;;12.45;;
69310;SDS011;56430;48.154;16.458;2023-03-20T05:45:15;27.98;;;12.40;;
69310;SDS011;56430;48.154;16.458;2023-03-20T05:47:43;32.53;;;11.20;;
69310;SDS011;56430;48.154;16.458;2023-03-20T05:50:11;23.43;;;11.40;;
69310;SDS011;56430;48.154;16.458;2023-03-20T05:52:38;45.00;;;12.57;;
69310;SDS011;56430;48.154;16.458;2023-03-20T05:55:05;38.40;;;12.48;;
69310;SDS011;56430;48.154;16.458;2023-03-20T05:57:33;35.28;;;11.52;;
69310;SDS011;56430;48.154;16.458;2023-03-20T06:00:00;36.85;;;12.60;;
69310;SDS011;56430;48.154;16.458;2023-03-20T06:02:27;27.77;;;11.77;;
69310;SDS011;56430;48.154;16.458;2023-03-20T06:04:55;30.58;;;11.40;;
69310;SDS011;56430;48.154;16.458;2023-03-20T06:07:22;37.58;;;12.20;;
69310;SDS011;56430;48.154;16.458;2023-03-20T06:09:49;31.27;;;11.75;;
69310;SDS011;56430;48.154;16.458;2023-03-20T06:12:16;26.85;;;10.48;;
69310;SDS011;56430;48.154;16.458;2023-03-20T06:14:43;24.53;;;11.40;;
69310;SDS011;56430;48.154;16.458;2023-03-20T06:17:10;27.30;;;11.80;;
69310;SDS011;56430;48.154;16.458;2023-03-20T06:19:37;31.27;;;11.05;;
69310;SDS011;56430;48.154;16.458;2023-03-20T06:22:05;23.92;;;9.65;;
69310;SDS011;56430;48.154;16.458;2023-03-20T06:24:32;25.90;;;10.57;;
69310;SDS011;56430;48.154;16.458;2023-03-20T06:27:00;27.67;;;10.87;;
69310;SDS011;56430;48.154;16.458;2023-03-20T06:29:27;24.50;;;11.07;;
69310;SDS011;56430;48.154;16.458;2023-03-20T06:31:54;27.30;;;11.13;;
69310;SDS011;56430;48.154;16.458;2023-03-20T06:34:21;25.13;;;10.98;;
69310;SDS011;56430;48.154;16.458;2023-03-20T06:36:48;24.55;;;11.68;;
69310;SDS011;56430;48.154;16.458;2023-03-20T06:39:16;24.30;;;11.67;;
69310;SDS011;56430;48.154;16.458;2023-03-20T06:41:43;33.92;;;12.40;;
69310;SDS011;56430;48.154;16.458;2023-03-20T06:44:10;30.17;;;13.00;;
69310;SDS011;56430;48.154;16.458;2023-03-20T06:46:37;32.47;;;12.77;;
69310;SDS011;56430;48.154;16.458;2023-03-20T06:49:04;36.28;;;12.60;;
69310;SDS011;56430;48.154;16.458;2023-03-20T06:51:31;28.23;;;12.77;;
69310;SDS011;56430;48.154;16.458;2023-03-20T06:53:58;29.13;;;13.57;;
69310;SDS011;56430;48.154;16.458;2023-03-20T06:56:26;28.80;;;13.38;;
69310;SDS011;56430;48.154;16.458;2023-03-20T06:58:53;32.15;;;13.32;;
69310;SDS011;56430;48.154;16.458;2023-03-20T07:01:20;29.15;;;13.25;;
69310;SDS011;56430;48.154;16.458;2023-03-20T07:03:48;28.50;;;12.60;;
69310;SDS011;56430;48.154;16.458;2023-03-20T07:06:15;32.42;;;13.35;;
69310;SDS011;56430;48.154;16.458;2023-03-20T07:08:43;28.30;;;12.75;;
69310;SDS011;56430;48.154;16.458;2023-03-20T07:11:10;30.15;;;12.27;;
69310;SDS011;56430;48.154;16.458;2023-03-20T07:13:39;23.45;;;12.35;;
69310;SDS011;56430;48.154;16.458;2023-03-20T07:16:06;29.13;;;13.20;;
69310;SDS011;56430;48.154;16.458;2023-03-20T07:18:33;27.75;;;13.30;;
69310;SDS011;56430;48.154;16.458;2023-03-20T07:21:02;26.45;;;12.60;;
69310;SDS011;56430;48.154;16.458;2023-03-20T07:23:29;28.58;;;12.88;;
69310;SDS011;56430;48.154;16.458;2023-03-20T07:25:57;33.70;;;15.13;;
69310;SDS011;56430;48.154;16.458;2023-03-20T07:28:24;28.67;;;14.03;;
69310;SDS011;56430;48.154;16.458;2023-03-20T07:30:55;31.27;;;13.77;;
69310;SDS011;56430;48.154;16.458;2023-03-20T07:33:22;32.53;;;14.15;;
69310;SDS011;56430;48.154;16.458;2023-03-20T07:35:51;37.92;;;15.50;;
69310;SDS011;56430;48.154;16.458;2023-03-20T07:38:20;34.10;;;15.05;;
69310;SDS011;56430;48.154;16.458;2023-03-20T07:40:47;33.27;;;14.40;;
69310;SDS011;56430;48.154;16.458;2023-03-20T07:43:14;26.00;;;12.75;;
69310;SDS011;56430;48.154;16.458;2023-03-20T07:45:41;31.95;;;13.52;;
69310;SDS011;56430;48.154;16.458;2023-03-20T07:48:09;20.73;;;10.88;;
69310;SDS011;56430;48.154;16.458;2023-03-20T07:50:36;19.20;;;10.38;;
69310;SDS011;56430;48.154;16.458;2023-03-20T07:53:03;23.17;;;9.53;;
69310;SDS011;56430;48.154;16.458;2023-03-20T07:55:30;21.70;;;10.00;;
69310;SDS011;56430;48.154;16.458;2023-03-20T07:57:57;12.00;;;7.90;;
69310;SDS011;56430;48.154;16.458;2023-03-20T08:00:24;14.50;;;7.65;;
69310;SDS011;56430;48.154;16.458;2023-03-20T08:02:53;16.02;;;7.75;;
69310;SDS011;56430;48.154;16.458;2023-03-20T08:05:22;14.57;;;7.70;;
69310;SDS011;56430;48.154;16.458;2023-03-20T08:07:49;12.13;;;7.75;;
69310;SDS011;56430;48.154;16.458;2023-03-20T08:10:16;13.35;;;8.63;;
69310;SDS011;56430;48.154;16.458;2023-03-20T08:12:43;12.57;;;7.93;;
69310;SDS011;56430;48.154;16.458;2023-03-20T08:15:10;11.65;;;8.18;;
69310;SDS011;56430;48.154;16.458;2023-03-20T08:17:37;11.50;;;7.85;;
69310;SDS011;56430;48.154;16.458;2023-03-20T08:20:07;12.27;;;7.60;;
69310;SDS011;56430;48.154;16.458;2023-03-20T08:22:36;9.77;;;7.57;;
69310;SDS011;56430;48.154;16.458;2023-03-20T08:25:03;12.68;;;7.15;;
69310;SDS011;56430;48.154;16.458;2023-03-20T08:27:30;9.60;;;7.07;;
69310;SDS011;56430;48.154;16.458;2023-03-20T08:29:57;9.65;;;7.10;;
69310;SDS011;56430;48.154;16.458;2023-03-20T08:32:24;13.93;;;7.53;;
69310;SDS011;56430;48.154;16.458;2023-03-20T08:34:51;10.13;;;7.10;;
69310;SDS011;56430;48.154;16.458;2023-03-20T08:37:19;9.07;;;6.95;;
69310;SDS011;56430;48.154;16.458;2023-03-20T08:39:47;10.30;;;7.03;;
69310;SDS011;56430;48.154;16.458;2023-03-20T08:42:14;8.30;;;6.53;;
69310;SDS011;56430;48.154;16.458;2023-03-20T08:44:41;10.70;;;6.77;;
69310;SDS011;56430;48.154;16.458;2023-03-20T08:47:08;10.57;;;6.37;;
69310;SDS011;56430;48.154;16.458;2023-03-20T08:49:36;9.25;;;6.80;;
69310;SDS011;56430;48.154;16.458;2023-03-20T08:52:03;16.02;;;7.05;;
69310;SDS011;56430;48.154;16.458;2023-03-20T08:54:30;9.55;;;6.68;;
69310;SDS011;56430;48.154;16.458;2023-03-20T08:56:59;9.50;;;6.82;;
69310;SDS011;56430;48.154;16.458;2023-03-20T08:59:26;9.77;;;6.28;;
69310;SDS011;56430;48.154;16.458;2023-03-20T09:01:53;8.60;;;6.05;;
69310;SDS011;56430;48.154;16.458;2023-03-20T09:04:20;7.55;;;5.32;;
69310;SDS011;56430;48.154;16.458;2023-03-20T09:06:48;7.55;;;5.57;;
69310;SDS011;56430;48.154;16.458;2023-03-20T09:09:14;8.60;;;5.70;;
69310;SDS011;56430;48.154;16.458;2023-03-20T09:11:44;8.50;;;5.97;;
69310;SDS011;56430;48.154;16.458;2023-03-20T09:14:12;7.97;;;5.45;;
69310;SDS011;56430;48.154;16.458;2023-03-20T09:16:40;8.65;;;5.72;;
69310;SDS011;56430;48.154;16.458;2023-03-20T09:19:07;8.55;;;5.70;;
69310;SDS011;56430;48.154;16.458;2023-03-20T09:21:34;7.50;;;5.95;;
69310;SDS011;56430;48.154;16.458;2023-03-20T09:24:00;6.97;;;5.63;;
69310;SDS011;56430;48.154;16.458;2023-03-20T09:26:27;8.98;;;6.03;;
69310;SDS011;56430;48.154;16.458;2023-03-20T09:28:54;11.55;;;6.30;;
69310;SDS011;56430;48.154;16.458;2023-03-20T09:31:23;9.50;;;6.07;;
69310;SDS011;56430;48.154;16.458;2023-03-20T09:33:50;12.30;;;6.00;;
69310;SDS011;56430;48.154;16.458;2023-03-20T09:36:18;9.63;;;5.87;;
69310;SDS011;56430;48.154;16.458;2023-03-20T09:38:44;7.30;;;5.53;;
69310;SDS011;56430;48.154;16.458;2023-03-20T09:41:13;7.55;;;5.00;;
69310;SDS011;56430;48.154;16.458;2023-03-20T09:43:44;7.47;;;5.72;;
69310;SDS011;56430;48.154;16.458;2023-03-20T09:46:25;7.28;;;5.50;;
69310;SDS011;56430;48.154;16.458;2023-03-20T09:49:00;6.82;;;4.97;;
69310;SDS011;56430;48.154;16.458;2023-03-20T09:51:29;8.48;;;5.13;;
69310;SDS011;56430;48.154;16.458;2023-03-20T09:54:00;8.13;;;4.50;;
69310;SDS011;56430;48.154;16.458;2023-03-20T09:56:28;6.07;;;3.78;;
69310;SDS011;56430;48.154;16.458;2023-03-20T09:58:55;7.23;;;4.43;;
69310;SDS011;56430;48.154;16.458;2023-03-20T10:01:25;5.77;;;3.30;;
69310;SDS011;56430;48.154;16.458;2023-03-20T10:03:54;4.70;;;3.17;;
69310;SDS011;56430;48.154;16.458;2023-03-20T10:06:22;4.30;;;2.58;;
69310;SDS011;56430;48.154;16.458;2023-03-20T10:08:49;4.57;;;2.70;;
69310;SDS011;56430;48.154;16.458;2023-03-20T10:11:31;13.10;;;3.00;;
69310;SDS011;56430;48.154;16.458;2023-03-20T10:14:06;5.20;;;2.58;;
69310;SDS011;56430;48.154;16.458;2023-03-20T10:16:41;6.30;;;3.20;;
69310;SDS011;56430;48.154;16.458;2023-03-20T10:19:13;4.65;;;2.53;;
69310;SDS011;56430;48.154;16.458;2023-03-20T10:21:42;3.75;;;2.47;;
69310;SDS011;56430;48.154;16.458;2023-03-20T10:24:11;5.53;;;2.40;;
69310;SDS011;56430;48.154;16.458;2023-03-20T10:26:44;4.97;;;2.20;;
69310;SDS011;56430;48.154;16.458;2023-03-20T10:29:13;5.43;;;2.40;;
69310;SDS011;56430;48.154;16.458;2023-03-20T10:31:44;3.65;;;2.13;;
69310;SDS011;56430;48.154;16.458;2023-03-20T10:34:19;5.18;;;2.53;;
69310;SDS011;56430;48.154;16.458;2023-03-20T10:36:52;6.15;;;2.97;;
69310;SDS011;56430;48.154;16.458;2023-03-20T10:39:30;17.25;;;3.47;;
69310;SDS011;56430;48.154;16.458;2023-03-20T10:42:01;8.32;;;2.70;;
69310;SDS011;56430;48.154;16.458;2023-03-20T10:44:30;4.80;;;2.55;;
69310;SDS011;56430;48.154;16.458;2023-03-20T10:47:00;6.00;;;3.10;;
69310;SDS011;56430;48.154;16.458;2023-03-20T10:49:32;4.87;;;2.17;;
69310;SDS011;56430;48.154;16.458;2023-03-20T10:52:02;5.10;;;2.50;;
69310;SDS011;56430;48.154;16.458;2023-03-20T10:54:31;5.55;;;2.40;;
69310;SDS011;56430;48.154;16.458;2023-03-20T10:56:59;5.38;;;2.40;;
69310;SDS011;56430;48.154;16.458;2023-03-20T10:59:28;4.53;;;2.70;;
69310;SDS011;56430;48.154;16.458;2023-03-20T11:01:59;10.98;;;3.13;;
69310;SDS011;56430;48.154;16.458;2023-03-20T11:04:26;5.78;;;2.90;;
69310;SDS011;56430;48.154;16.458;2023-03-20T11:06:54;7.22;;;3.17;;
69310;SDS011;56430;48.154;16.458;2023-03-20T11:09:23;10.68;;;2.60;;
69310;SDS011;56430;48.154;16.458;2023-03-20T11:11:51;7.18;;;2.20;;
69310;SDS011;56430;48.154;16.458;2023-03-20T11:14:22;4.63;;;2.27;;
69310;SDS011;56430;48.154;16.458;2023-03-20T11:16:49;4.37;;;2.30;;
69310;SDS011;56430;48.154;16.458;2023-03-20T11:19:19;7.20;;;2.40;;
69310;SDS011;56430;48.154;16.458;2023-03-20T11:21:47;4.25;;;2.70;;
69310;SDS011;56430;48.154;16.458;2023-03-20T11:24:25;5.47;;;2.70;;
69310;SDS011;56430;48.154;16.458;2023-03-20T11:26:53;4.57;;;2.50;;
69310;SDS011;56430;48.154;16.458;2023-03-20T11:29:22;6.15;;;2.40;;
69310;SDS011;56430;48.154;16.458;2023-03-20T11:31:50;5.03;;;2.38;;
69310;SDS011;56430;48.154;16.458;2023-03-20T11:34:22;3.72;;;2.00;;
69310;SDS011;56430;48.154;16.458;2023-03-20T11:36:54;4.57;;;2.60;;
69310;SDS011;56430;48.154;16.458;2023-03-20T11:39:22;3.90;;;2.50;;
69310;SDS011;56430;48.154;16.458;2023-03-20T11:41:50;6.03;;;2.53;;
69310;SDS011;56430;48.154;16.458;2023-03-20T11:44:20;5.65;;;2.50;;
69310;SDS011;56430;48.154;16.458;2023-03-20T11:46:53;6.20;;;2.90;;
69310;SDS011;56430;48.154;16.458;2023-03-20T11:49:23;5.50;;;2.83;;
69310;SDS011;56430;48.154;16.458;2023-03-20T11:51:50;5.88;;;2.63;;
69310;SDS011;56430;48.154;16.458;2023-03-20T11:54:18;4.50;;;2.65;;
69310;SDS011;56430;48.154;16.458;2023-03-20T11:56:52;9.95;;;3.10;;
69310;SDS011;56430;48.154;16.458;2023-03-20T11:59:20;5.07;;;3.00;;
69310;SDS011;56430;48.154;16.458;2023-03-20T12:01:47;5.43;;;2.40;;
69310;SDS011;56430;48.154;16.458;2023-03-20T12:04:15;4.00;;;2.27;;
69310;SDS011;56430;48.154;16.458;2023-03-20T12:06:45;5.50;;;2.37;;
69310;SDS011;56430;48.154;16.458;2023-03-20T12:09:18;9.40;;;3.22;;
69310;SDS011;56430;48.154;16.458;2023-03-20T12:11:51;5.32;;;2.45;;
69310;SDS011;56430;48.154;16.458;2023-03-20T12:14:21;5.10;;;2.40;;
69310;SDS011;56430;48.154;16.458;2023-03-20T12:16:50;4.63;;;2.53;;
69310;SDS011;56430;48.154;16.458;2023-03-20T12:19:19;7.93;;;2.45;;
69310;SDS011;56430;48.154;16.458;2023-03-20T12:21:51;5.82;;;3.08;;
69310;SDS011;56430;48.154;16.458;2023-03-20T12:24:25;10.93;;;3.20;;
69310;SDS011;56430;48.154;16.458;2023-03-20T12:26:53;6.57;;;2.80;;
69310;SDS011;56430;48.154;16.458;2023-03-20T12:29:24;10.50;;;2.70;;
69310;SDS011;56430;48.154;16.458;2023-03-20T12:31:53;4.15;;;2.40;;
69310;SDS011;56430;48.154;16.458;2023-03-20T12:34:21;4.22;;;2.05;;
69310;SDS011;56430;48.154;16.458;2023-03-20T12:36:51;4.68;;;2.65;;
69310;SDS011;56430;48.154;16.458;2023-03-20T12:39:19;6.57;;;2.33;;
69310;SDS011;56430;48.154;16.458;2023-03-20T12:41:59;6.15;;;2.72;;
69310;SDS011;56430;48.154;16.458;2023-03-20T12:44:33;5.13;;;2.27;;
69310;SDS011;56430;48.154;16.458;2023-03-20T12:47:06;5.60;;;2.20;;
69310;SDS011;56430;48.154;16.458;2023-03-20T12:49:38;4.50;;;2.60;;
69310;SDS011;56430;48.154;16.458;2023-03-20T12:52:09;3.72;;;2.10;;
69310;SDS011;56430;48.154;16.458;2023-03-20T12:54:47;5.18;;;2.40;;
69310;SDS011;56430;48.154;16.458;2023-03-20T12:57:17;4.80;;;2.27;;
69310;SDS011;56430;48.154;16.458;2023-03-20T12:59:49;4.47;;;2.30;;
69310;SDS011;56430;48.154;16.458;2023-03-20T13:02:26;6.90;;;2.50;;
69310;SDS011;56430;48.154;16.458;2023-03-20T13:04:57;4.13;;;2.00;;
69310;SDS011;56430;48.154;16.458;2023-03-20T13:07:36;5.38;;;1.70;;
69310;SDS011;56430;48.154;16.458;2023-03-20T13:10:11;4.43;;;1.60;;
69310;SDS011;56430;48.154;16.458;2023-03-20T13:12:43;4.23;;;1.90;;
69310;SDS011;56430;48.154;16.458;2023-03-20T13:15:16;3.17;;;1.40;;
69310;SDS011;56430;48.154;16.458;2023-03-20T13:17:49;5.93;;;1.80;;
69310;SDS011;56430;48.154;16.458;2023-03-20T13:20:25;4.07;;;1.58;;
69310;SDS011;56430;48.154;16.458;2023-03-20T13:22:58;4.85;;;1.83;;
69310;SDS011;56430;48.154;16.458;2023-03-20T13:25:33;4.88;;;1.20;;
69310;SDS011;56430;48.154;16.458;2023-03-20T13:28:01;2.93;;;1.33;;
69310;SDS011;56430;48.154;16.458;2023-03-20T13:30:32;4.67;;;1.70;;
69310;SDS011;56430;48.154;16.458;2023-03-20T13:33:03;3.03;;;1.30;;
69310;SDS011;56430;48.154;16.458;2023-03-20T13:35:34;5.13;;;1.40;;
69310;SDS011;56430;48.154;16.458;2023-03-20T13:38:07;3.63;;;1.85;;
69310;SDS011;56430;48.154;16.458;2023-03-20T13:40:36;3.22;;;1.63;;
69310;SDS011;56430;48.154;16.458;2023-03-20T13:43:07;4.37;;;2.20;;
69310;SDS011;56430;48.154;16.458;2023-03-20T13:45:39;4.13;;;2.33;;
69310;SDS011;56430;48.154;16.458;2023-03-20T13:48:11;4.88;;;2.55;;
69310;SDS011;56430;48.154;16.458;2023-03-20T13:50:44;10.05;;;2.83;;
69310;SDS011;56430;48.154;16.458;2023-03-20T13:53:18;4.13;;;2.25;;
69310;SDS011;56430;48.154;16.458;2023-03-20T13:55:48;4.47;;;2.10;;
69310;SDS011;56430;48.154;16.458;2023-03-20T13:58:31;7.13;;;1.77;;
69310;SDS011;56430;48.154;16.458;2023-03-20T14:01:01;4.97;;;2.08;;
69310;SDS011;56430;48.154;16.458;2023-03-20T14:03:32;3.50;;;1.50;;
69310;SDS011;56430;48.154;16.458;2023-03-20T14:06:00;4.30;;;1.40;;
69310;SDS011;56430;48.154;16.458;2023-03-20T14:08:34;3.70;;;1.47;;
69310;SDS011;56430;48.154;16.458;2023-03-20T14:11:06;5.80;;;1.37;;
69310;SDS011;56430;48.154;16.458;2023-03-20T14:13:37;3.97;;;1.60;;
69310;SDS011;56430;48.154;16.458;2023-03-20T14:16:06;3.30;;;1.40;;
69310;SDS011;56430;48.154;16.458;2023-03-20T14:18:33;5.18;;;1.50;;
69310;SDS011;56430;48.154;16.458;2023-03-20T14:21:03;3.40;;;1.38;;
69310;SDS011;56430;48.154;16.458;2023-03-20T14:23:36;4.13;;;1.60;;
69310;SDS011;56430;48.154;16.458;2023-03-20T14:26:05;5.70;;;2.05;;
69310;SDS011;56430;48.154;16.458;2023-03-20T14:28:42;3.15;;;1.50;;
69310;SDS011;56430;48.154;16.458;2023-03-20T14:31:11;5.22;;;1.50;;
69310;SDS011;56430;48.154;16.458;2023-03-20T14:33:41;3.20;;;1.30;;
69310;SDS011;56430;48.154;16.458;2023-03-20T14:36:09;7.03;;;1.70;;
69310;SDS011;56430;48.154;16.458;2023-03-20T14:38:38;6.95;;;1.80;;
69310;SDS011;56430;48.154;16.458;2023-03-20T14:41:09;4.28;;;1.77;;